Time;durP1;ratioP1;P1;durP2;ratioP2;P2;SDS_P1;SDS_P2;PMS_P1;PMS_P2;Temp;Humidity;BMP_temperature;BMP_pressure;BME280_temperature;BME280_humidity;BME280_pressure;Samples;Min_cycle;Max_cycle;Signal;HPM_P1;HPM_P2
2023/06/21 00:01:43;;;;;;;7.45;3.28;;;19.50;99.90;;;;;;5042072;28;20080;-51
2023/06/21 00:04:08;;;;;;;5.80;3.10;;;19.60;99.90;;;;;;5040936;28;20045;-52
2023/06/21 00:06:36;;;;;;;8.95;3.28;;;19.60;99.90;;;;;;5040207;28;20108;-55
2023/06/21 00:09:06;;;;;;;7.28;3.25;;;19.50;99.90;;;;;;5040155;28;20029;-56
2023/06/21 00:11:32;;;;;;;5.80;3.75;;;19.40;99.90;;;;;;5042936;28;20075;-51
2023/06/21 00:13:57;;;;;;;7.47;3.65;;;19.50;99.90;;;;;;5042946;28;20486;-55
2023/06/21 00:16:23;;;;;;;5.25;2.83;;;19.40;99.90;;;;;;5042098;28;20072;-56
2023/06/21 00:18:49;;;;;;;6.20;2.97;;;19.40;99.90;;;;;;5045033;28;20395;-56
2023/06/21 00:21:15;;;;;;;8.25;3.13;;;19.30;99.90;;;;;;5033844;28;20032;-53
2023/06/21 00:23:43;;;;;;;4.90;3.05;;;19.40;99.90;;;;;;5046994;28;20507;-54
2023/06/21 00:26:09;;;;;;;8.85;3.83;;;19.30;99.90;;;;;;5040647;28;20037;-56
2023/06/21 00:28:35;;;;;;;6.68;3.35;;;19.30;99.90;;;;;;5036233;28;20040;-53
2023/06/21 00:31:00;;;;;;;4.13;2.47;;;19.30;99.90;;;;;;5035814;28;20035;-53
2023/06/21 00:33:26;;;;;;;9.35;3.88;;;19.30;99.90;;;;;;5044487;28;20053;-56
2023/06/21 00:35:52;;;;;;;8.20;3.08;;;19.20;99.90;;;;;;5041047;28;20071;-56
2023/06/21 00:38:17;;;;;;;4.93;3.30;;;19.20;99.90;;;;;;5043161;28;20025;-53
2023/06/21 00:40:43;;;;;;;8.93;3.92;;;19.20;99.90;;;;;;5039231;28;20517;-53
2023/06/21 00:43:09;;;;;;;6.70;3.90;;;19.30;99.90;;;;;;5038265;28;20055;-52
2023/06/21 00:45:40;;;;;;;4.60;3.20;;;19.20;99.90;;;;;;5036372;28;20430;-55
2023/06/21 00:48:08;;;;;;;8.27;3.58;;;19.20;99.90;;;;;;5038948;28;20048;-54
2023/06/21 00:50:34;;;;;;;4.45;3.08;;;19.20;99.90;;;;;;5040505;28;20404;-52
2023/06/21 00:53:00;;;;;;;4.72;3.38;;;19.30;99.90;;;;;;5036477;28;20037;-56
2023/06/21 00:55:26;;;;;;;6.15;3.50;;;19.30;99.90;;;;;;5040464;28;20029;-53
2023/06/21 00:57:51;;;;;;;6.18;4.32;;;19.20;99.90;;;;;;5037925;28;20575;-55
2023/06/21 01:00:22;;;;;;;8.25;3.92;;;19.30;99.90;;;;;;5038426;28;20032;-57
2023/06/21 01:02:50;;;;;;;7.35;4.50;;;19.20;99.90;;;;;;5038121;28;20044;-57
2023/06/21 01:05:16;;;;;;;6.30;3.55;;;19.30;99.90;;;;;;5038036;28;20037;-57
2023/06/21 01:08:00;;;;;;;6.10;3.65;;;19.20;99.90;;;;;;5041654;28;20056;-54
2023/06/21 01:11:09;;;;;;;6.00;4.07;;;19.20;99.90;;;;;;5041913;28;20025;-53
2023/06/21 01:14:12;;;;;;;7.95;3.67;;;19.10;99.90;;;;;;5042181;28;20039;-58
2023/06/21 01:16:42;;;;;;;6.53;3.70;;;19.00;99.90;;;;;;5042738;28;20029;-55
2023/06/21 01:19:29;;;;;;;5.38;3.55;;;18.90;99.90;;;;;;5041277;28;20025;-53
2023/06/21 01:21:57;;;;;;;7.78;4.40;;;18.90;99.90;;;;;;5041815;28;20380;-54
2023/06/21 01:24:40;;;;;;;7.00;3.92;;;18.90;99.90;;;;;;5035149;28;20030;-54
2023/06/21 01:27:29;;;;;;;8.50;3.83;;;18.90;99.90;;;;;;5043456;28;20028;-54
2023/06/21 01:29:59;;;;;;;9.93;4.32;;;18.80;99.90;;;;;;5039751;28;20029;-53
2023/06/21 01:32:27;;;;;;;6.35;4.03;;;18.80;99.90;;;;;;5034345;28;20104;-55
2023/06/21 01:34:54;;;;;;;8.50;4.10;;;18.80;99.90;;;;;;5041172;28;20057;-53
2023/06/21 01:37:20;;;;;;;8.05;4.22;;;18.70;99.90;;;;;;5041691;28;20084;-55
2023/06/21 01:39:45;;;;;;;7.90;4.18;;;18.60;99.90;;;;;;5042739;28;20487;-56
2023/06/21 01:42:11;;;;;;;8.00;3.83;;;18.60;99.90;;;;;;5039913;28;20649;-57
2023/06/21 01:44:37;;;;;;;8.48;5.15;;;18.60;99.90;;;;;;5036317;28;20534;-53
2023/06/21 01:47:03;;;;;;;8.98;3.78;;;18.60;99.90;;;;;;5036366;28;20036;-52
2023/06/21 01:49:29;;;;;;;6.25;4.18;;;18.60;99.90;;;;;;5044310;28;20517;-51
2023/06/21 01:51:56;;;;;;;6.90;4.18;;;18.50;99.90;;;;;;5038716;28;20037;-54
2023/06/21 01:54:25;;;;;;;6.53;4.00;;;18.40;99.90;;;;;;5040347;28;20403;-55
2023/06/21 01:56:58;;;;;;;7.43;4.03;;;18.40;99.90;;;;;;5040169;28;20075;-54
2023/06/21 01:59:24;;;;;;;7.85;4.43;;;18.40;99.90;;;;;;5042924;28;20519;-52
2023/06/21 02:01:50;;;;;;;9.20;4.82;;;18.40;99.90;;;;;;5038668;28;20125;-56
2023/06/21 02:04:16;;;;;;;7.50;4.50;;;18.40;99.90;;;;;;5041119;28;20026;-57
2023/06/21 02:06:42;;;;;;;5.72;3.72;;;18.40;99.90;;;;;;5032435;28;20551;-53
2023/06/21 02:09:09;;;;;;;7.28;4.20;;;18.40;99.90;;;;;;5042221;28;20041;-50
2023/06/21 02:11:35;;;;;;;6.63;4.50;;;18.40;99.90;;;;;;5036220;28;20071;-53
2023/06/21 02:14:02;;;;;;;6.18;4.22;;;18.40;99.90;;;;;;5036291;28;20112;-54
2023/06/21 02:16:29;;;;;;;7.53;4.70;;;18.40;99.90;;;;;;5036306;28;20377;-52
2023/06/21 02:18:55;;;;;;;10.57;4.53;;;18.50;99.90;;;;;;5042477;28;20035;-58
2023/06/21 02:21:21;;;;;;;8.10;4.47;;;18.50;99.90;;;;;;5041721;28;20029;-55
2023/06/21 02:23:46;;;;;;;7.10;4.32;;;18.50;99.90;;;;;;5040350;28;20121;-53
2023/06/21 02:26:12;;;;;;;6.50;3.85;;;18.50;99.90;;;;;;5036962;28;20162;-54
2023/06/21 02:28:38;;;;;;;7.82;3.53;;;18.50;99.90;;;;;;5036686;28;20391;-56
2023/06/21 02:31:03;;;;;;;7.38;4.88;;;18.50;99.90;;;;;;5039987;28;20040;-52
2023/06/21 02:33:31;;;;;;;5.72;4.18;;;18.50;99.90;;;;;;5043075;28;20025;-53
2023/06/21 02:35:57;;;;;;;6.88;4.47;;;18.50;99.90;;;;;;5042804;28;20575;-57
2023/06/21 02:38:25;;;;;;;9.00;4.45;;;18.40;99.90;;;;;;5043965;28;20021;-52
2023/06/21 02:40:50;;;;;;;4.88;3.65;;;18.40;99.90;;;;;;5035203;28;20031;-53
2023/06/21 02:43:16;;;;;;;6.50;4.25;;;18.40;99.90;;;;;;5039407;28;20112;-54
2023/06/21 02:45:42;;;;;;;6.45;3.80;;;18.40;99.90;;;;;;5045927;28;20399;-52
2023/06/21 02:48:07;;;;;;;9.70;4.65;;;18.30;99.90;;;;;;5038571;28;20087;-55
2023/06/21 02:50:33;;;;;;;5.32;3.90;;;18.30;99.90;;;;;;5043060;28;20048;-51
2023/06/21 02:52:58;;;;;;;7.05;4.03;;;18.30;99.90;;;;;;5039356;28;20065;-51
2023/06/21 02:55:24;;;;;;;5.90;4.13;;;18.30;99.90;;;;;;5043717;28;20022;-57
2023/06/21 02:57:49;;;;;;;6.82;4.40;;;18.30;99.90;;;;;;5042530;28;20029;-55
2023/06/21 03:00:22;;;;;;;8.70;4.80;;;18.20;99.90;;;;;;5044968;28;20083;-53
2023/06/21 03:02:49;;;;;;;7.22;4.03;;;18.20;99.90;;;;;;5039317;28;20060;-55
2023/06/21 03:05:15;;;;;;;7.85;4.18;;;18.20;99.90;;;;;;5046254;28;20083;-55
2023/06/21 03:07:43;;;;;;;9.02;4.82;;;18.10;99.90;;;;;;5040039;28;20025;-57
2023/06/21 03:10:19;;;;;;;11.80;4.90;;;18.10;99.90;;;;;;5049408;28;20031;-53
2023/06/21 03:12:45;;;;;;;7.80;4.28;;;18.10;99.90;;;;;;5040817;28;20029;-52
2023/06/21 03:15:11;;;;;;;7.07;4.68;;;18.10;99.90;;;;;;5043410;28;20025;-56
2023/06/21 03:17:38;;;;;;;9.50;4.55;;;18.10;99.90;;;;;;5045418;28;20025;-55
2023/06/21 03:20:08;;;;;;;10.02;5.10;;;18.10;99.90;;;;;;5045979;28;20036;-56
2023/06/21 03:22:34;;;;;;;8.88;4.90;;;18.00;99.90;;;;;;5039576;28;20037;-55
2023/06/21 03:25:00;;;;;;;7.38;5.03;;;18.00;99.90;;;;;;5041210;28;20543;-57
2023/06/21 03:27:27;;;;;;;11.25;4.35;;;18.10;99.90;;;;;;5039144;28;20105;-53
2023/06/21 03:29:52;;;;;;;9.05;4.85;;;18.10;99.90;;;;;;5042528;28;20503;-54
2023/06/21 03:32:19;;;;;;;7.82;4.43;;;18.20;99.90;;;;;;5042805;28;20029;-56
2023/06/21 03:34:44;;;;;;;8.82;4.75;;;18.20;99.90;;;;;;5047650;28;20499;-57
2023/06/21 03:37:10;;;;;;;8.30;4.88;;;18.10;99.90;;;;;;5043814;28;20025;-50
2023/06/21 03:39:36;;;;;;;7.60;4.65;;;18.10;99.90;;;;;;5044477;28;20594;-50
2023/06/21 03:42:01;;;;;;;7.22;4.95;;;18.20;99.90;;;;;;5041640;28;20068;-51
2023/06/21 03:44:29;;;;;;;8.40;4.85;;;18.20;99.90;;;;;;5042590;28;20049;-57
2023/06/21 03:46:55;;;;;;;7.03;4.07;;;18.20;99.90;;;;;;5046362;28;20608;-53
2023/06/21 03:49:21;;;;;;;8.68;5.22;;;18.20;99.90;;;;;;5041120;28;20037;-55
2023/06/21 03:51:47;;;;;;;11.55;4.90;;;18.20;99.90;;;;;;5037133;28;20028;-59
2023/06/21 03:54:13;;;;;;;6.45;4.20;;;18.20;99.90;;;;;;5037999;28;20029;-57
2023/06/21 03:56:38;;;;;;;6.80;5.03;;;18.20;99.90;;;;;;5043469;28;20024;-55
2023/06/21 03:59:04;;;;;;;9.40;5.00;;;18.20;99.90;;;;;;5038546;28;20021;-53
2023/06/21 04:01:29;;;;;;;6.43;3.97;;;18.30;99.90;;;;;;5042418;28;20028;-56
2023/06/21 04:03:56;;;;;;;16.02;5.13;;;18.30;99.90;;;;;;5039049;28;20041;-56
2023/06/21 04:06:22;;;;;;;10.65;4.93;;;18.40;99.90;;;;;;5042858;28;20423;-57
2023/06/21 04:08:47;;;;;;;9.70;4.72;;;18.50;99.90;;;;;;5039366;28;20112;-55
2023/06/21 04:11:14;;;;;;;7.78;4.75;;;18.50;99.90;;;;;;5042106;28;20462;-55
2023/06/21 04:13:39;;;;;;;12.88;5.28;;;18.60;99.90;;;;;;5035495;28;20486;-56
2023/06/21 04:16:05;;;;;;;7.63;4.55;;;18.70;99.90;;;;;;5040786;28;20036;-54
2023/06/21 04:18:31;;;;;;;8.15;4.57;;;18.70;99.90;;;;;;5036026;28;20053;-51
2023/06/21 04:20:56;;;;;;;6.57;4.35;;;18.70;99.90;;;;;;5041620;28;20025;-58
2023/06/21 04:23:22;;;;;;;8.20;3.95;;;18.70;99.90;;;;;;5037141;28;20044;-51
2023/06/21 04:25:47;;;;;;;9.63;4.85;;;18.80;99.90;;;;;;5043415;28;20045;-55
2023/06/21 04:28:13;;;;;;;15.90;4.95;;;18.80;99.90;;;;;;5035466;28;20041;-54
2023/06/21 04:30:38;;;;;;;10.25;4.75;;;18.80;99.90;;;;;;5046678;28;20029;-57
2023/06/21 04:33:04;;;;;;;5.82;4.28;;;18.80;99.90;;;;;;5037957;28;20087;-52
2023/06/21 04:35:32;;;;;;;9.90;5.00;;;18.80;99.90;;;;;;5040643;28;20149;-57
2023/06/21 04:37:58;;;;;;;11.90;5.22;;;18.80;99.90;;;;;;5038963;28;20029;-55
2023/06/21 04:40:24;;;;;;;11.15;5.78;;;18.80;99.90;;;;;;5042519;28;20033;-52
2023/06/21 04:42:55;;;;;;;11.90;4.85;;;18.90;99.90;;;;;;5034488;28;20036;-54
2023/06/21 04:45:21;;;;;;;19.10;5.53;;;18.90;99.90;;;;;;5040686;28;20108;-56
2023/06/21 04:47:47;;;;;;;7.90;5.18;;;19.00;99.90;;;;;;5039710;28;20026;-52
2023/06/21 04:50:14;;;;;;;6.55;4.95;;;19.00;99.90;;;;;;5040690;28;20421;-56
2023/06/21 04:52:39;;;;;;;10.05;5.53;;;19.00;99.90;;;;;;5036680;28;20794;-57
2023/06/21 04:55:05;;;;;;;16.30;5.13;;;19.10;99.90;;;;;;5041925;28;20116;-54
2023/06/21 04:57:32;;;;;;;13.57;5.63;;;19.10;99.90;;;;;;5038495;28;20033;-56
2023/06/21 04:59:57;;;;;;;8.23;5.55;;;19.10;99.90;;;;;;5043075;28;20029;-56
2023/06/21 05:02:24;;;;;;;8.27;5.75;;;19.20;99.90;;;;;;5041591;28;20101;-54
2023/06/21 05:04:50;;;;;;;9.82;5.75;;;19.20;99.90;;;;;;5044944;28;20521;-57
2023/06/21 05:07:16;;;;;;;10.32;5.55;;;19.30;99.90;;;;;;5037908;28;20037;-59
2023/06/21 05:09:41;;;;;;;9.38;5.97;;;19.30;99.90;;;;;;5043021;28;20033;-51
2023/06/21 05:12:08;;;;;;;9.95;5.75;;;19.40;99.90;;;;;;5043328;28;20043;-56
2023/06/21 05:14:34;;;;;;;9.55;5.28;;;19.50;99.90;;;;;;5045518;28;20086;-57
2023/06/21 05:16:59;;;;;;;10.60;5.07;;;19.50;99.90;;;;;;5037415;28;20056;-56
2023/06/21 05:19:25;;;;;;;11.55;5.72;;;19.60;99.90;;;;;;5044153;28;20032;-57
2023/06/21 05:21:51;;;;;;;14.75;6.25;;;19.60;99.90;;;;;;5034794;28;20063;-54
2023/06/21 05:24:16;;;;;;;10.35;6.85;;;19.70;99.90;;;;;;5042191;28;20033;-58
2023/06/21 05:26:44;;;;;;;9.50;6.25;;;19.80;99.90;;;;;;5039612;28;20027;-58
2023/06/21 05:29:11;;;;;;;9.48;6.22;;;19.90;99.90;;;;;;5043844;28;20128;-57
2023/06/21 05:31:37;;;;;;;16.50;7.32;;;20.00;99.90;;;;;;5041028;28;20112;-54
2023/06/21 05:34:03;;;;;;;11.68;6.70;;;20.20;99.90;;;;;;5041207;28;20037;-55
2023/06/21 05:36:28;;;;;;;10.07;7.03;;;20.30;99.90;;;;;;5036688;28;20420;-57
2023/06/21 05:38:53;;;;;;;8.98;6.20;;;20.40;99.90;;;;;;5041176;28;20212;-53
2023/06/21 05:41:19;;;;;;;9.45;7.00;;;20.40;99.90;;;;;;5039452;28;20033;-54
2023/06/21 05:43:45;;;;;;;13.80;7.70;;;20.50;99.90;;;;;;5039436;28;20034;-54
2023/06/21 05:46:10;;;;;;;10.63;7.43;;;20.50;99.90;;;;;;5040659;28;20037;-56
2023/06/21 05:48:36;;;;;;;10.80;7.20;;;20.60;99.90;;;;;;5040416;28;20071;-54
2023/06/21 05:51:02;;;;;;;12.07;6.63;;;20.60;99.90;;;;;;5040683;28;20407;-55
2023/06/21 05:53:27;;;;;;;13.80;6.70;;;20.60;99.90;;;;;;5039317;28;20035;-56
2023/06/21 05:55:54;;;;;;;10.25;6.65;;;20.70;99.90;;;;;;5034915;28;20029;-55
2023/06/21 05:58:20;;;;;;;11.50;6.78;;;20.70;99.90;;;;;;5039307;28;20017;-54
2023/06/21 06:00:46;;;;;;;15.68;7.85;;;20.70;99.90;;;;;;5039228;28;20113;-54
2023/06/21 06:03:12;;;;;;;13.48;7.53;;;20.80;99.90;;;;;;5041094;28;20451;-55
2023/06/21 06:05:37;;;;;;;11.82;7.25;;;20.80;99.90;;;;;;5042339;28;20555;-54
2023/06/21 06:08:03;;;;;;;16.40;6.88;;;20.80;99.90;;;;;;5035869;28;20037;-58
2023/06/21 06:10:29;;;;;;;21.83;7.90;;;20.90;99.90;;;;;;5039180;28;20048;-55
2023/06/21 06:12:54;;;;;;;14.57;7.70;;;21.00;99.90;;;;;;5039735;28;20033;-54
2023/06/21 06:15:20;;;;;;;15.23;7.18;;;21.00;99.90;;;;;;5046384;28;20108;-54
2023/06/21 06:17:46;;;;;;;13.98;8.10;;;21.10;99.90;;;;;;5045855;28;20128;-55
2023/06/21 06:20:12;;;;;;;20.75;8.10;;;21.20;99.90;;;;;;5048090;28;20028;-53
2023/06/21 06:22:39;;;;;;;16.05;7.65;;;21.20;99.90;;;;;;5043351;28;20024;-53
2023/06/21 06:25:05;;;;;;;11.63;7.28;;;21.30;99.90;;;;;;5049902;28;20445;-54
2023/06/21 06:27:31;;;;;;;13.57;6.95;;;21.30;99.90;;;;;;5043633;28;20076;-58
2023/06/21 06:29:57;;;;;;;13.90;7.88;;;21.40;99.90;;;;;;5048817;28;20037;-55
2023/06/21 06:32:22;;;;;;;11.15;7.43;;;21.50;99.90;;;;;;5042953;28;20029;-58
2023/06/21 06:34:48;;;;;;;12.32;7.70;;;21.50;99.90;;;;;;5049399;28;20087;-55
2023/06/21 06:37:13;;;;;;;13.88;7.40;;;21.60;99.90;;;;;;5044281;28;20029;-54
2023/06/21 06:39:39;;;;;;;11.30;7.90;;;21.70;99.90;;;;;;5049891;28;20095;-58
2023/06/21 06:42:05;;;;;;;12.73;8.00;;;21.80;99.90;;;;;;5039249;28;20121;-55
2023/06/21 06:44:30;;;;;;;12.60;7.75;;;21.90;99.90;;;;;;5045228;28;20503;-57
2023/06/21 06:46:56;;;;;;;11.52;7.15;;;22.00;99.90;;;;;;5041152;28;20040;-55
2023/06/21 06:49:22;;;;;;;11.20;6.95;;;22.20;99.90;;;;;;5044138;28;20029;-56
2023/06/21 06:51:47;;;;;;;11.80;6.72;;;22.30;99.90;;;;;;5040731;28;20490;-58
2023/06/21 06:54:13;;;;;;;8.75;6.32;;;22.20;99.90;;;;;;5043854;28;20068;-57
2023/06/21 06:56:39;;;;;;;9.63;6.93;;;22.30;99.90;;;;;;5040336;28;20029;-58
2023/06/21 06:59:04;;;;;;;11.32;6.30;;;22.20;99.90;;;;;;5045641;28;20403;-58
2023/06/21 07:01:30;;;;;;;10.85;6.07;;;22.20;99.90;;;;;;5046167;28;20111;-55
2023/06/21 07:03:56;;;;;;;11.93;7.30;;;22.20;99.90;;;;;;5047720;28;20032;-56
2023/06/21 07:06:21;;;;;;;17.13;7.28;;;22.30;99.90;;;;;;5039663;28;20081;-54
2023/06/21 07:08:47;;;;;;;12.05;6.35;;;22.30;99.90;;;;;;5044947;28;20492;-52
2023/06/21 07:11:13;;;;;;;7.43;5.57;;;22.30;99.90;;;;;;5048489;28;20537;-51
2023/06/21 07:13:39;;;;;;;8.32;5.95;;;22.40;99.90;;;;;;5045675;28;20487;-56
2023/06/21 07:16:05;;;;;;;11.05;6.10;;;22.50;99.90;;;;;;5043975;28;20021;-56
2023/06/21 07:18:30;;;;;;;7.25;5.10;;;22.50;99.90;;;;;;5043142;28;20036;-55
2023/06/21 07:20:56;;;;;;;10.93;6.43;;;22.60;99.90;;;;;;5045764;28;20534;-55
2023/06/21 07:23:21;;;;;;;9.40;6.00;;;22.70;99.90;;;;;;5045663;28;20025;-55
2023/06/21 07:25:47;;;;;;;8.02;5.53;;;22.70;99.90;;;;;;5042015;28;20064;-58
2023/06/21 07:28:12;;;;;;;11.65;6.38;;;22.60;99.90;;;;;;5041795;28;20099;-57
2023/06/21 07:30:38;;;;;;;12.15;5.65;;;22.70;99.90;;;;;;5046987;28;20029;-58
2023/06/21 07:33:06;;;;;;;8.90;5.45;;;22.70;99.90;;;;;;5040752;28;20406;-55
2023/06/21 07:35:31;;;;;;;12.23;6.78;;;22.80;99.90;;;;;;5046701;28;20041;-56
2023/06/21 07:37:57;;;;;;;9.75;5.95;;;23.00;99.90;;;;;;5044431;28;20033;-54
2023/06/21 07:40:23;;;;;;;12.27;7.35;;;23.10;99.90;;;;;;5041644;28;20032;-54
2023/06/21 07:42:49;;;;;;;13.20;6.57;;;23.10;99.90;;;;;;5043636;28;20041;-57
2023/06/21 07:45:15;;;;;;;8.43;5.55;;;23.10;99.90;;;;;;5033399;28;20124;-57
2023/06/21 07:47:41;;;;;;;8.73;5.38;;;23.10;99.90;;;;;;5041567;28;20100;-54
2023/06/21 07:50:07;;;;;;;9.25;5.80;;;23.20;99.90;;;;;;5041373;28;20028;-56
2023/06/21 07:52:33;;;;;;;8.77;6.10;;;23.30;99.90;;;;;;5045565;28;20026;-56
2023/06/21 07:54:59;;;;;;;9.05;5.88;;;23.40;99.90;;;;;;5040252;28;20436;-58
2023/06/21 07:57:24;;;;;;;10.27;6.57;;;23.50;99.90;;;;;;5040596;28;20079;-58
2023/06/21 07:59:50;;;;;;;13.90;6.90;;;23.60;99.90;;;;;;5043940;28;20108;-56
2023/06/21 08:02:18;;;;;;;8.48;5.75;;;23.70;99.90;;;;;;5036532;28;20037;-57
2023/06/21 08:04:44;;;;;;;10.52;5.55;;;23.80;99.90;;;;;;5046406;28;20444;-58
2023/06/21 08:07:10;;;;;;;11.40;5.80;;;23.80;99.90;;;;;;5037224;28;20022;-58
2023/06/21 08:09:36;;;;;;;13.93;6.13;;;23.90;99.90;;;;;;5041027;28;20053;-58
2023/06/21 08:12:01;;;;;;;12.88;6.55;;;23.90;99.90;;;;;;5043073;28;20052;-57
2023/06/21 08:14:27;;;;;;;12.13;6.13;;;23.90;99.90;;;;;;5040030;28;20115;-57
2023/06/21 08:16:53;;;;;;;24.92;7.18;;;23.90;99.90;;;;;;5040245;28;20025;-56
2023/06/21 08:19:19;;;;;;;11.50;6.15;;;24.00;99.90;;;;;;5043077;28;20075;-58
2023/06/21 08:21:44;;;;;;;8.77;6.55;;;24.10;99.90;;;;;;5041002;28;20434;-56
2023/06/21 08:24:10;;;;;;;8.52;5.63;;;24.10;99.90;;;;;;5041768;28;20407;-57
2023/06/21 08:26:36;;;;;;;8.43;5.57;;;24.20;99.90;;;;;;5040254;28;20454;-56
2023/06/21 08:29:02;;;;;;;9.93;6.25;;;24.20;99.90;;;;;;5044113;28;20507;-57
2023/06/21 08:31:27;;;;;;;11.68;5.07;;;24.20;99.90;;;;;;5042353;28;20116;-56
2023/06/21 08:33:53;;;;;;;12.68;6.60;;;24.30;99.90;;;;;;5037675;28;20127;-53
2023/06/21 08:36:19;;;;;;;13.82;5.80;;;24.40;99.90;;;;;;5035551;28;20025;-57
2023/06/21 08:38:45;;;;;;;8.38;6.35;;;24.50;99.90;;;;;;5035029;28;20043;-57
2023/06/21 08:41:12;;;;;;;12.90;6.63;;;24.50;99.90;;;;;;5039752;28;20025;-57
2023/06/21 08:43:37;;;;;;;10.85;7.07;;;24.40;99.90;;;;;;5046874;28;20368;-56
2023/06/21 08:46:06;;;;;;;13.85;6.68;;;24.50;99.90;;;;;;5039358;28;20120;-54
2023/06/21 08:48:33;;;;;;;16.35;7.15;;;24.60;99.90;;;;;;5042934;28;20480;-54
2023/06/21 08:51:02;;;;;;;14.52;6.13;;;24.70;99.90;;;;;;5043347;28;20529;-52
2023/06/21 08:54:11;;;;;;;10.15;6.15;;;24.70;99.90;;;;;;5043889;28;20060;-56
2023/06/21 08:57:03;;;;;;;13.52;6.90;;;24.80;99.90;;;;;;5046452;28;20055;-58
2023/06/21 08:59:53;;;;;;;11.88;7.20;;;24.90;99.90;;;;;;5048102;28;20116;-57
2023/06/21 09:02:47;;;;;;;24.55;7.53;;;24.90;99.90;;;;;;5041400;28;20431;-57
2023/06/21 09:05:22;;;;;;;12.32;7.72;;;25.00;99.90;;;;;;5037538;28;20504;-58
2023/06/21 09:07:49;;;;;;;11.75;6.47;;;25.00;99.90;;;;;;5035054;28;20033;-57
2023/06/21 09:10:16;;;;;;;12.52;6.32;;;24.90;99.90;;;;;;5037501;28;20067;-57
2023/06/21 09:12:44;;;;;;;16.05;6.75;;;25.00;99.90;;;;;;5038170;28;20029;-56
2023/06/21 09:15:11;;;;;;;11.02;7.50;;;25.00;99.90;;;;;;5043545;28;20021;-53
2023/06/21 09:17:38;;;;;;;9.85;7.38;;;25.10;99.90;;;;;;5037568;28;20033;-55
2023/06/21 09:20:04;;;;;;;8.55;6.68;;;25.10;99.90;;;;;;5038814;28;20467;-56
2023/06/21 09:22:31;;;;;;;10.45;6.55;;;25.20;99.90;;;;;;5039473;28;20142;-57
2023/06/21 09:24:56;;;;;;;13.82;6.72;;;25.20;99.90;;;;;;5041848;28;20537;-56
2023/06/21 09:27:22;;;;;;;11.70;6.30;;;25.40;99.90;;;;;;5033231;28;20024;-55
2023/06/21 09:29:49;;;;;;;36.63;7.30;;;25.50;99.90;;;;;;5035764;28;20049;-54
2023/06/21 09:32:14;;;;;;;9.60;6.22;;;25.50;99.90;;;;;;5034719;28;20083;-57
2023/06/21 09:34:40;;;;;;;11.43;6.53;;;25.80;99.90;;;;;;5044553;28;20041;-55
2023/06/21 09:37:05;;;;;;;11.63;6.45;;;26.00;99.90;;;;;;5037712;28;20045;-56
2023/06/21 09:39:31;;;;;;;13.90;7.40;;;26.10;99.90;;;;;;5043019;28;20009;-57
2023/06/21 09:41:57;;;;;;;11.50;7.30;;;26.00;99.90;;;;;;5037105;28;20610;-55
2023/06/21 09:44:23;;;;;;;12.07;6.97;;;25.90;99.90;;;;;;5043782;28;20388;-55
2023/06/21 09:46:49;;;;;;;12.13;6.40;;;25.90;99.90;;;;;;5040729;28;20025;-54
2023/06/21 09:49:18;;;;;;;10.75;6.22;;;25.80;99.90;;;;;;5041044;28;20383;-51
2023/06/21 09:51:47;;;;;;;12.85;7.07;;;25.60;99.90;;;;;;5039359;28;20103;-55
2023/06/21 09:54:12;;;;;;;20.63;7.38;;;25.40;99.90;;;;;;5041509;28;20026;-55
2023/06/21 09:56:38;;;;;;;13.40;7.13;;;25.30;99.90;;;;;;5035696;28;20043;-56
2023/06/21 09:59:16;;;;;;;10.63;7.40;;;25.20;99.90;;;;;;5038025;28;20036;-54
2023/06/21 10:01:45;;;;;;;11.38;6.65;;;25.30;99.90;;;;;;5032157;28;20025;-55
2023/06/21 10:04:12;;;;;;;12.00;7.13;;;25.40;99.90;;;;;;5040479;28;20013;-55
2023/06/21 10:06:46;;;;;;;9.48;6.32;;;25.50;99.90;;;;;;5031205;28;20032;-54
2023/06/21 10:09:11;;;;;;;10.23;7.20;;;25.50;99.90;;;;;;5035574;28;20029;-54
2023/06/21 10:11:37;;;;;;;9.70;6.57;;;25.50;99.90;;;;;;5036923;28;20029;-57
2023/06/21 10:14:03;;;;;;;10.77;7.15;;;25.70;99.90;;;;;;5038713;28;20112;-56
2023/06/21 10:16:29;;;;;;;13.27;6.90;;;26.10;99.90;;;;;;5036118;28;20152;-53
2023/06/21 10:18:58;;;;;;;10.57;6.90;;;26.50;99.90;;;;;;5037520;28;20365;-55
2023/06/21 10:21:24;;;;;;;15.15;7.32;;;26.70;99.90;;;;;;5037410;28;20022;-54
2023/06/21 10:23:51;;;;;;;11.68;6.90;;;26.80;99.90;;;;;;5035750;28;20034;-57
2023/06/21 10:26:19;;;;;;;8.75;6.55;;;26.60;99.90;;;;;;5036334;28;20029;-56
2023/06/21 10:28:48;;;;;;;15.80;6.50;;;26.40;99.90;;;;;;5037289;28;20033;-53
2023/06/21 10:31:13;;;;;;;8.68;6.35;;;26.30;99.90;;;;;;5035988;28;20029;-52
2023/06/21 10:33:40;;;;;;;8.68;6.72;;;26.20;99.90;;;;;;5037313;28;20036;-52
2023/06/21 10:36:14;;;;;;;11.85;6.50;;;26.20;99.90;;;;;;5030607;28;20055;-55
2023/06/21 10:38:45;;;;;;;10.10;6.88;;;26.20;99.90;;;;;;5033960;28;20130;-53
2023/06/21 10:41:12;;;;;;;9.48;6.20;;;26.20;99.90;;;;;;5037565;28;20071;-55
2023/06/21 10:43:39;;;;;;;8.07;6.30;;;26.10;99.90;;;;;;5030679;28;20150;-56
2023/06/21 10:46:07;;;;;;;15.15;6.70;;;26.30;99.90;;;;;;5040619;28;20112;-57
2023/06/21 10:48:33;;;;;;;14.55;6.55;;;26.40;99.90;;;;;;5032790;28;20107;-51
2023/06/21 10:51:01;;;;;;;8.38;6.60;;;26.20;99.90;;;;;;5037240;28;20451;-56
2023/06/21 10:53:33;;;;;;;11.77;7.00;;;26.20;99.90;;;;;;5035406;28;20021;-57
2023/06/21 10:56:04;;;;;;;15.52;6.47;;;26.10;99.90;;;;;;5037089;28;20577;-53
2023/06/21 10:58:30;;;;;;;9.40;6.60;;;26.00;99.90;;;;;;5041651;28;20026;-56
2023/06/21 11:00:57;;;;;;;9.23;6.57;;;26.00;99.90;;;;;;5040246;28;20076;-53
2023/06/21 11:03:28;;;;;;;19.35;7.78;;;25.90;99.90;;;;;;5038481;28;20061;-52
2023/06/21 11:06:26;;;;;;;9.23;6.57;;;25.80;99.90;;;;;;5045439;28;20033;-56
2023/06/21 11:08:52;;;;;;;9.65;7.15;;;25.80;99.90;;;;;;5040854;28;20037;-54
2023/06/21 11:11:29;;;;;;;10.43;7.03;;;25.80;99.90;;;;;;5038895;28;20025;-56
2023/06/21 11:13:55;;;;;;;13.23;7.47;;;25.80;99.90;;;;;;5039149;28;20048;-57
2023/06/21 11:16:25;;;;;;;13.40;7.10;;;25.70;99.90;;;;;;5040125;28;20092;-57
2023/06/21 11:18:59;;;;;;;13.75;7.28;;;25.50;99.90;;;;;;5045949;28;20083;-55
2023/06/21 11:21:44;;;;;;;15.00;8.00;;;25.20;99.90;;;;;;5040189;28;20380;-56
2023/06/21 11:24:17;;;;;;;21.45;8.68;;;24.80;99.90;;;;;;5041371;28;20033;-55
2023/06/21 11:27:02;;;;;;;11.27;8.05;;;24.50;99.90;;;;;;5037656;28;20083;-58
2023/06/21 11:29:40;;;;;;;13.32;8.57;;;24.30;99.90;;;;;;5041945;28;20020;-57
2023/06/21 11:32:13;;;;;;;15.75;8.73;;;24.20;99.90;;;;;;5037691;28;20025;-58
2023/06/21 11:34:59;;;;;;;14.20;8.90;;;24.20;99.90;;;;;;5036065;28;20029;-56
2023/06/21 11:37:47;;;;;;;13.55;8.18;;;24.00;99.90;;;;;;5036290;28;20067;-53
2023/06/21 11:40:15;;;;;;;14.35;9.45;;;24.00;99.90;;;;;;5041156;28;20021;-55
2023/06/21 11:42:46;;;;;;;11.98;9.60;;;23.80;99.90;;;;;;5037472;28;20183;-53
2023/06/21 11:45:26;;;;;;;13.48;9.57;;;23.80;99.90;;;;;;5041936;28;20024;-55
2023/06/21 11:47:58;;;;;;;15.45;11.40;;;23.80;99.90;;;;;;5038576;28;20021;-52
2023/06/21 11:50:34;;;;;;;15.95;11.35;;;23.80;99.90;;;;;;5042331;28;20091;-54
2023/06/21 11:53:22;;;;;;;24.92;12.00;;;23.80;99.90;;;;;;5041192;28;20029;-56
2023/06/21 11:55:59;;;;;;;14.55;10.60;;;23.60;99.90;;;;;;5044667;28;20029;-54
2023/06/21 11:58:26;;;;;;;16.33;10.55;;;23.70;99.90;;;;;;5040103;28;20108;-58
2023/06/21 12:00:52;;;;;;;18.92;12.23;;;23.70;99.90;;;;;;5039168;28;20044;-56
2023/06/21 12:03:21;;;;;;;19.20;11.70;;;23.60;99.90;;;;;;5033514;28;20026;-55
2023/06/21 12:05:57;;;;;;;16.52;11.32;;;23.60;99.90;;;;;;5040479;28;20542;-54
2023/06/21 12:08:28;;;;;;;15.75;9.50;;;23.90;99.90;;;;;;5037858;28;20035;-55
2023/06/21 12:11:07;;;;;;;12.38;8.25;;;24.20;99.90;;;;;;5044081;28;20032;-55
2023/06/21 12:13:34;;;;;;;14.38;8.93;;;24.80;99.90;;;;;;5038916;28;20033;-58
2023/06/21 12:16:04;;;;;;;14.55;8.00;;;25.30;99.90;;;;;;5039098;28;20032;-58
2023/06/21 12:18:33;;;;;;;11.68;7.72;;;25.70;99.90;;;;;;5036666;28;20429;-55
2023/06/21 12:21:00;;;;;;;11.60;8.23;;;25.90;99.90;;;;;;5035314;28;20126;-54
2023/06/21 12:23:28;;;;;;;13.10;7.35;;;25.90;99.90;;;;;;5034506;28;20048;-58
2023/06/21 12:26:02;;;;;;;9.02;7.28;;;26.20;99.90;;;;;;5036860;28;20025;-57
2023/06/21 12:28:28;;;;;;;9.35;6.72;;;26.30;99.90;;;;;;5036148;28;20163;-54
2023/06/21 12:30:53;;;;;;;9.70;7.03;;;26.60;99.90;;;;;;5042839;28;20475;-57
2023/06/21 12:33:26;;;;;;;10.90;5.85;;;26.90;99.90;;;;;;5038905;28;20033;-58
2023/06/21 12:36:08;;;;;;;8.17;5.63;;;27.10;99.90;;;;;;5039183;28;20059;-57
2023/06/21 12:38:34;;;;;;;15.10;6.90;;;26.80;99.90;;;;;;5042600;28;20021;-54
2023/06/21 12:41:00;;;;;;;12.93;6.63;;;26.70;99.90;;;;;;5041910;28;20048;-57
2023/06/21 12:43:36;;;;;;;10.15;5.00;;;26.70;99.90;;;;;;5040580;28;20163;-58
2023/06/21 12:46:06;;;;;;;12.00;6.68;;;26.90;99.90;;;;;;5036321;28;20108;-52